HBLPT LFTZ-LESU
Flight info
| Callsign | HBLPT |
|---|---|
| Flight time | 1h 33m |
| Altitude | 18000 |
| Route | LANKO DCT LFML DCT LFMI DCT LFMT DCT LFMU DCT LFMP DCT MAMUK DCT LATRO |
| Aircraft | C414/L-SBDFGRY/S |
Departure
| Time | 2026-05-06 11:15 |
|---|---|
| Airport | La Môle Airport (LFTZ) |
Arrival
| Time | 2026-05-06 12:49 |
|---|---|
| Airport | Pirineus - la Seu d'Urgel Airport (LESU) |
| Time | Latitude | Longitude | Altitude | Speed | Heading |
|---|---|---|---|---|---|
| 2026-05-06 11:10 | 43.20380 | 6.47597 | 63 ft | 0 kts | 135° |
| 2026-05-06 11:13 | 43.20370 | 6.47599 | 60 ft | 4 kts | 212° |
| 2026-05-06 11:13 | 43.20351 | 6.47558 | 63 ft | 6 kts | 242° |
| 2026-05-06 11:13 | 43.20341 | 6.47535 | 63 ft | 1 kts | 236° |
| 2026-05-06 11:14 | 43.20330 | 6.47514 | 60 ft | 5 kts | 225° |
| 2026-05-06 11:14 | 43.20294 | 6.47528 | 64 ft | 8 kts | 124° |
| 2026-05-06 11:14 | 43.20313 | 6.47601 | 63 ft | 11 kts | 59° |
| 2026-05-06 11:14 | 43.20398 | 6.47819 | 65 ft | 52 kts | 62° |
| 2026-05-06 11:15 | 43.20664 | 6.48503 | 73 ft | 106 kts | 64° |
| 2026-05-06 11:15 | 43.21053 | 6.49435 | 230 ft | 122 kts | 59° |
| 2026-05-06 11:15 | 43.21370 | 6.50505 | 493 ft | 119 kts | 51° |
| 2026-05-06 11:15 | 43.21893 | 6.51439 | 689 ft | 132 kts | 41° |
| 2026-05-06 11:16 | 43.22506 | 6.52357 | 1035 ft | 130 kts | 40° |
| 2026-05-06 11:16 | 43.23183 | 6.53291 | 1150 ft | 153 kts | 43° |
| 2026-05-06 11:16 | 43.23979 | 6.54373 | 1410 ft | 167 kts | 40° |
| 2026-05-06 11:16 | 43.24820 | 6.55516 | 1685 ft | 171 kts | 42° |
| 2026-05-06 11:17 | 43.25674 | 6.56676 | 1959 ft | 173 kts | 37° |
| 2026-05-06 11:17 | 43.26742 | 6.57075 | 2202 ft | 157 kts | 338° |
| 2026-05-06 11:17 | 43.27414 | 6.56116 | 2480 ft | 142 kts | 275° |
| 2026-05-06 11:17 | 43.27164 | 6.54822 | 2754 ft | 144 kts | 249° |
| 2026-05-06 11:18 | 43.26747 | 6.53600 | 3139 ft | 139 kts | 246° |
| 2026-05-06 11:18 | 43.26337 | 6.52422 | 3510 ft | 134 kts | 254° |
| 2026-05-06 11:18 | 43.26229 | 6.51175 | 3885 ft | 130 kts | 269° |
| 2026-05-06 11:18 | 43.26221 | 6.49942 | 4272 ft | 128 kts | 269° |
| 2026-05-06 11:19 | 43.26188 | 6.48735 | 4646 ft | 125 kts | 267° |
| 2026-05-06 11:19 | 43.26131 | 6.47557 | 5014 ft | 122 kts | 264° |
| 2026-05-06 11:19 | 43.26060 | 6.46411 | 5397 ft | 120 kts | 265° |
| 2026-05-06 11:19 | 43.25985 | 6.45224 | 5603 ft | 129 kts | 265° |
| 2026-05-06 11:20 | 43.25901 | 6.43963 | 5819 ft | 136 kts | 266° |
| 2026-05-06 11:20 | 43.25808 | 6.42657 | 6022 ft | 142 kts | 265° |
| 2026-05-06 11:20 | 43.25711 | 6.41280 | 6237 ft | 148 kts | 264° |
| 2026-05-06 11:20 | 43.25609 | 6.39854 | 6432 ft | 152 kts | 265° |
| 2026-05-06 11:21 | 43.25503 | 6.38407 | 6616 ft | 153 kts | 265° |
| 2026-05-06 11:21 | 43.25396 | 6.36956 | 6813 ft | 153 kts | 264° |
| 2026-05-06 11:21 | 43.25287 | 6.35489 | 7016 ft | 155 kts | 264° |
| 2026-05-06 11:21 | 43.25174 | 6.33997 | 7222 ft | 159 kts | 264° |
| 2026-05-06 11:22 | 43.25065 | 6.32491 | 7396 ft | 159 kts | 264° |
| 2026-05-06 11:22 | 43.24950 | 6.30989 | 7606 ft | 159 kts | 264° |
| 2026-05-06 11:22 | 43.24845 | 6.29480 | 7805 ft | 160 kts | 264° |
| 2026-05-06 11:22 | 43.24732 | 6.27954 | 8012 ft | 161 kts | 263° |
| 2026-05-06 11:23 | 43.24616 | 6.26423 | 8206 ft | 161 kts | 263° |
| 2026-05-06 11:23 | 43.24499 | 6.24909 | 8430 ft | 162 kts | 263° |
| 2026-05-06 11:23 | 43.24387 | 6.23358 | 8639 ft | 162 kts | 263° |
| 2026-05-06 11:23 | 43.24273 | 6.21846 | 8853 ft | 161 kts | 263° |
| 2026-05-06 11:24 | 43.24156 | 6.20313 | 9053 ft | 162 kts | 263° |
| 2026-05-06 11:24 | 43.24039 | 6.18779 | 9264 ft | 162 kts | 262° |
| 2026-05-06 11:24 | 43.23923 | 6.17236 | 9479 ft | 163 kts | 262° |
| 2026-05-06 11:24 | 43.23805 | 6.15685 | 9691 ft | 164 kts | 262° |
| 2026-05-06 11:25 | 43.23688 | 6.14133 | 9896 ft | 164 kts | 262° |
| 2026-05-06 11:25 | 43.23570 | 6.12572 | 10053 ft | 166 kts | 262° |
| 2026-05-06 11:25 | 43.23448 | 6.10970 | 10150 ft | 171 kts | 262° |
| 2026-05-06 11:25 | 43.23324 | 6.09333 | 10247 ft | 174 kts | 262° |
| 2026-05-06 11:26 | 43.23197 | 6.07671 | 10352 ft | 176 kts | 263° |
| 2026-05-06 11:26 | 43.23069 | 6.05995 | 10441 ft | 177 kts | 262° |
| 2026-05-06 11:26 | 43.22942 | 6.04325 | 10546 ft | 178 kts | 263° |
| 2026-05-06 11:26 | 43.22813 | 6.02627 | 10648 ft | 180 kts | 262° |
| 2026-05-06 11:27 | 43.22680 | 6.00909 | 10749 ft | 181 kts | 262° |
| 2026-05-06 11:27 | 43.22471 | 5.99208 | 10819 ft | 180 kts | 258° |
| 2026-05-06 11:27 | 43.22214 | 5.97528 | 10916 ft | 179 kts | 258° |
| 2026-05-06 11:27 | 43.21963 | 5.95856 | 11020 ft | 179 kts | 258° |
| 2026-05-06 11:28 | 43.21718 | 5.94179 | 11125 ft | 180 kts | 258° |
| 2026-05-06 11:28 | 43.21473 | 5.92490 | 11227 ft | 181 kts | 258° |
| 2026-05-06 11:28 | 43.21231 | 5.90796 | 11329 ft | 181 kts | 258° |
| 2026-05-06 11:28 | 43.20991 | 5.89096 | 11431 ft | 182 kts | 258° |
| 2026-05-06 11:29 | 43.20750 | 5.87386 | 11536 ft | 183 kts | 258° |
| 2026-05-06 11:29 | 43.20511 | 5.85702 | 11626 ft | 182 kts | 258° |
| 2026-05-06 11:29 | 43.20272 | 5.83999 | 11743 ft | 182 kts | 258° |
| 2026-05-06 11:29 | 43.20032 | 5.82307 | 11896 ft | 180 kts | 258° |
| 2026-05-06 11:30 | 43.19793 | 5.80629 | 12050 ft | 179 kts | 258° |
| 2026-05-06 11:30 | 43.19556 | 5.78959 | 12204 ft | 178 kts | 257° |
| 2026-05-06 11:30 | 43.19320 | 5.77299 | 12363 ft | 177 kts | 257° |
| 2026-05-06 11:30 | 43.19084 | 5.75641 | 12514 ft | 177 kts | 257° |
| 2026-05-06 11:31 | 43.18850 | 5.73993 | 12667 ft | 176 kts | 257° |
| 2026-05-06 11:31 | 43.18614 | 5.72347 | 12823 ft | 176 kts | 257° |
| 2026-05-06 11:31 | 43.18380 | 5.70702 | 12999 ft | 176 kts | 258° |
| 2026-05-06 11:31 | 43.18145 | 5.69058 | 13159 ft | 176 kts | 257° |
| 2026-05-06 11:32 | 43.17909 | 5.67406 | 13318 ft | 177 kts | 257° |
| 2026-05-06 11:32 | 43.17672 | 5.65751 | 13474 ft | 177 kts | 257° |
| 2026-05-06 11:32 | 43.17435 | 5.64097 | 13633 ft | 177 kts | 257° |
| 2026-05-06 11:32 | 43.17199 | 5.62450 | 13793 ft | 176 kts | 257° |
| 2026-05-06 11:33 | 43.16962 | 5.60802 | 13944 ft | 176 kts | 257° |
| 2026-05-06 11:33 | 43.16725 | 5.59152 | 14090 ft | 177 kts | 257° |
| 2026-05-06 11:33 | 43.16490 | 5.57520 | 14231 ft | 177 kts | 257° |
| 2026-05-06 11:33 | 43.16254 | 5.55882 | 14433 ft | 173 kts | 257° |
| 2026-05-06 11:34 | 43.16025 | 5.54287 | 14675 ft | 169 kts | 257° |
| 2026-05-06 11:34 | 43.15799 | 5.52724 | 14922 ft | 166 kts | 257° |
| 2026-05-06 11:34 | 43.15577 | 5.51190 | 15171 ft | 163 kts | 257° |
| 2026-05-06 11:34 | 43.15357 | 5.49677 | 15421 ft | 161 kts | 257° |
| 2026-05-06 11:35 | 43.15140 | 5.48178 | 15676 ft | 160 kts | 257° |
| 2026-05-06 11:35 | 43.14924 | 5.46696 | 15930 ft | 158 kts | 257° |
| 2026-05-06 11:35 | 43.14710 | 5.45224 | 16188 ft | 157 kts | 256° |
| 2026-05-06 11:35 | 43.14497 | 5.43760 | 16444 ft | 156 kts | 256° |
| 2026-05-06 11:36 | 43.14286 | 5.42310 | 16710 ft | 155 kts | 256° |
| 2026-05-06 11:36 | 43.14075 | 5.40860 | 16977 ft | 154 kts | 256° |
| 2026-05-06 11:36 | 43.13865 | 5.39423 | 17241 ft | 154 kts | 256° |
| 2026-05-06 11:36 | 43.13656 | 5.37989 | 17512 ft | 153 kts | 256° |
| 2026-05-06 11:37 | 43.13447 | 5.36560 | 17779 ft | 153 kts | 256° |
| 2026-05-06 11:37 | 43.13238 | 5.35127 | 17985 ft | 156 kts | 256° |
| 2026-05-06 11:37 | 43.13017 | 5.33622 | 18011 ft | 166 kts | 256° |
| 2026-05-06 11:37 | 43.12784 | 5.32025 | 18029 ft | 176 kts | 257° |
| 2026-05-06 11:38 | 43.12539 | 5.30353 | 18031 ft | 182 kts | 257° |
| 2026-05-06 11:38 | 43.12291 | 5.28649 | 18031 ft | 187 kts | 257° |
| 2026-05-06 11:38 | 43.12035 | 5.26888 | 18030 ft | 190 kts | 257° |
| 2026-05-06 11:38 | 43.11775 | 5.25101 | 18030 ft | 192 kts | 257° |
| 2026-05-06 11:39 | 43.11510 | 5.23295 | 18030 ft | 194 kts | 257° |
| 2026-05-06 11:39 | 43.11245 | 5.21482 | 18030 ft | 195 kts | 257° |
| 2026-05-06 11:39 | 43.10977 | 5.19660 | 18019 ft | 195 kts | 257° |
| 2026-05-06 11:39 | 43.10710 | 5.17846 | 18026 ft | 194 kts | 257° |
| 2026-05-06 11:40 | 43.10443 | 5.16035 | 18029 ft | 194 kts | 257° |
| 2026-05-06 11:40 | 43.10176 | 5.14225 | 18030 ft | 194 kts | 257° |
| 2026-05-06 11:40 | 43.09908 | 5.12416 | 18031 ft | 194 kts | 257° |
| 2026-05-06 11:40 | 43.09643 | 5.10627 | 18031 ft | 194 kts | 257° |
| 2026-05-06 11:41 | 43.09375 | 5.08821 | 18031 ft | 194 kts | 257° |
| 2026-05-06 11:41 | 43.09107 | 5.07017 | 18032 ft | 194 kts | 257° |
| 2026-05-06 11:41 | 43.08838 | 5.05208 | 18032 ft | 194 kts | 257° |
| 2026-05-06 11:41 | 43.08569 | 5.03402 | 18032 ft | 194 kts | 257° |
| 2026-05-06 11:42 | 43.08300 | 5.01597 | 18035 ft | 194 kts | 257° |
| 2026-05-06 11:42 | 43.08121 | 5.00396 | 18035 ft | 194 kts | 257° |
| 2026-05-06 11:42 | 43.07851 | 4.98594 | 18037 ft | 194 kts | 257° |
| 2026-05-06 11:42 | 43.07581 | 4.96787 | 18037 ft | 194 kts | 257° |
| 2026-05-06 11:43 | 43.07311 | 4.94981 | 18040 ft | 194 kts | 257° |
| 2026-05-06 11:43 | 43.07038 | 4.93164 | 18038 ft | 195 kts | 257° |
| 2026-05-06 11:43 | 43.06765 | 4.91345 | 18038 ft | 196 kts | 257° |
| 2026-05-06 11:44 | 43.06215 | 4.87684 | 18038 ft | 197 kts | 257° |
| 2026-05-06 11:44 | 43.05939 | 4.85853 | 18037 ft | 197 kts | 257° |
| 2026-05-06 11:44 | 43.05663 | 4.84019 | 18037 ft | 197 kts | 257° |
| 2026-05-06 11:44 | 43.05385 | 4.82182 | 18037 ft | 197 kts | 257° |
| 2026-05-06 11:45 | 43.05107 | 4.80342 | 18038 ft | 197 kts | 257° |
| 2026-05-06 11:45 | 43.04833 | 4.78528 | 18038 ft | 197 kts | 257° |
| 2026-05-06 11:45 | 43.04555 | 4.76692 | 18037 ft | 197 kts | 257° |
| 2026-05-06 11:45 | 43.04276 | 4.74855 | 18037 ft | 197 kts | 257° |
| 2026-05-06 11:46 | 43.03997 | 4.73017 | 18037 ft | 197 kts | 257° |
| 2026-05-06 11:46 | 43.03718 | 4.71179 | 18037 ft | 197 kts | 257° |
| 2026-05-06 11:46 | 43.03439 | 4.69342 | 18037 ft | 197 kts | 257° |
| 2026-05-06 11:46 | 43.03159 | 4.67505 | 18038 ft | 197 kts | 257° |
| 2026-05-06 11:47 | 43.02879 | 4.65667 | 18038 ft | 197 kts | 257° |
| 2026-05-06 11:47 | 43.02598 | 4.63829 | 18038 ft | 197 kts | 257° |
| 2026-05-06 11:47 | 43.02317 | 4.61991 | 18037 ft | 198 kts | 257° |
| 2026-05-06 11:47 | 43.02036 | 4.60152 | 18037 ft | 198 kts | 257° |
| 2026-05-06 11:48 | 43.01754 | 4.58314 | 18037 ft | 197 kts | 257° |
| 2026-05-06 11:48 | 43.01472 | 4.56477 | 18044 ft | 198 kts | 257° |
| 2026-05-06 11:48 | 43.01188 | 4.54626 | 18042 ft | 199 kts | 257° |
| 2026-05-06 11:48 | 43.00902 | 4.52772 | 18041 ft | 200 kts | 257° |
| 2026-05-06 11:49 | 43.00616 | 4.50907 | 18041 ft | 201 kts | 257° |
| 2026-05-06 11:49 | 43.00331 | 4.49064 | 18040 ft | 201 kts | 257° |
| 2026-05-06 11:49 | 43.00043 | 4.47194 | 18040 ft | 201 kts | 257° |
| 2026-05-06 11:49 | 42.99755 | 4.45325 | 18040 ft | 201 kts | 257° |
| 2026-05-06 11:50 | 42.99465 | 4.43452 | 18043 ft | 201 kts | 257° |
| 2026-05-06 11:50 | 42.99176 | 4.41584 | 18043 ft | 201 kts | 257° |
| 2026-05-06 11:50 | 42.98886 | 4.39709 | 18043 ft | 202 kts | 257° |
| 2026-05-06 11:50 | 42.98595 | 4.37836 | 18043 ft | 202 kts | 257° |
| 2026-05-06 11:51 | 42.98304 | 4.35961 | 18040 ft | 202 kts | 257° |
| 2026-05-06 11:51 | 42.98012 | 4.34083 | 18040 ft | 202 kts | 257° |
| 2026-05-06 11:51 | 42.97720 | 4.32210 | 18040 ft | 202 kts | 257° |
| 2026-05-06 11:51 | 42.97428 | 4.30335 | 18040 ft | 202 kts | 257° |
| 2026-05-06 11:52 | 42.97139 | 4.28484 | 18042 ft | 202 kts | 257° |
| 2026-05-06 11:52 | 42.96846 | 4.26610 | 18041 ft | 202 kts | 257° |
| 2026-05-06 11:52 | 42.96554 | 4.24737 | 18040 ft | 202 kts | 257° |
| 2026-05-06 11:52 | 42.96261 | 4.22866 | 18040 ft | 202 kts | 257° |
| 2026-05-06 11:53 | 42.95966 | 4.20989 | 18040 ft | 202 kts | 257° |
| 2026-05-06 11:53 | 42.95672 | 4.19116 | 18043 ft | 202 kts | 258° |
| 2026-05-06 11:53 | 42.95377 | 4.17237 | 18042 ft | 203 kts | 258° |
| 2026-05-06 11:53 | 42.95079 | 4.15347 | 18041 ft | 204 kts | 258° |
| 2026-05-06 11:54 | 42.94782 | 4.13458 | 18039 ft | 204 kts | 257° |
| 2026-05-06 11:54 | 42.94483 | 4.11562 | 18035 ft | 204 kts | 257° |
| 2026-05-06 11:54 | 42.94184 | 4.09666 | 18035 ft | 204 kts | 257° |
| 2026-05-06 11:54 | 42.93889 | 4.07798 | 18038 ft | 204 kts | 257° |
| 2026-05-06 11:55 | 42.93590 | 4.05908 | 18042 ft | 204 kts | 257° |
| 2026-05-06 11:55 | 42.93291 | 4.04019 | 18042 ft | 204 kts | 257° |
| 2026-05-06 11:55 | 42.92992 | 4.02131 | 18043 ft | 204 kts | 257° |
| 2026-05-06 11:55 | 42.92692 | 4.00241 | 18043 ft | 204 kts | 257° |
| 2026-05-06 11:56 | 42.92392 | 3.98350 | 18040 ft | 204 kts | 257° |
| 2026-05-06 11:56 | 42.92091 | 3.96461 | 18040 ft | 204 kts | 257° |
| 2026-05-06 11:56 | 42.91790 | 3.94572 | 18040 ft | 204 kts | 257° |
| 2026-05-06 11:56 | 42.91489 | 3.92683 | 18040 ft | 204 kts | 257° |
| 2026-05-06 11:57 | 42.91187 | 3.90795 | 18040 ft | 204 kts | 257° |
| 2026-05-06 11:57 | 42.90885 | 3.88902 | 18040 ft | 204 kts | 257° |
| 2026-05-06 11:57 | 42.90583 | 3.87013 | 18040 ft | 204 kts | 257° |
| 2026-05-06 11:57 | 42.90280 | 3.85125 | 18040 ft | 204 kts | 257° |
| 2026-05-06 11:58 | 42.89978 | 3.83240 | 18040 ft | 204 kts | 257° |
| 2026-05-06 11:58 | 42.89675 | 3.81353 | 18045 ft | 204 kts | 257° |
| 2026-05-06 11:58 | 42.89371 | 3.79461 | 18041 ft | 204 kts | 258° |
| 2026-05-06 11:58 | 42.89066 | 3.77566 | 18042 ft | 205 kts | 258° |
| 2026-05-06 11:59 | 42.88760 | 3.75670 | 18042 ft | 205 kts | 258° |
| 2026-05-06 11:59 | 42.88455 | 3.73773 | 18043 ft | 205 kts | 258° |
| 2026-05-06 11:59 | 42.88148 | 3.71875 | 18043 ft | 205 kts | 258° |
| 2026-05-06 11:59 | 42.87845 | 3.69999 | 18043 ft | 205 kts | 258° |
| 2026-05-06 12:00 | 42.87534 | 3.68079 | 18042 ft | 205 kts | 258° |
| 2026-05-06 12:00 | 42.87226 | 3.66180 | 18044 ft | 205 kts | 258° |
| 2026-05-06 12:00 | 42.86919 | 3.64283 | 18045 ft | 205 kts | 258° |
| 2026-05-06 12:00 | 42.86614 | 3.62405 | 18045 ft | 205 kts | 258° |
| 2026-05-06 12:01 | 42.86305 | 3.60505 | 18045 ft | 205 kts | 258° |
| 2026-05-06 12:01 | 42.85997 | 3.58608 | 18044 ft | 205 kts | 258° |
| 2026-05-06 12:01 | 42.85687 | 3.56709 | 18043 ft | 205 kts | 257° |
| 2026-05-06 12:01 | 42.85377 | 3.54806 | 18043 ft | 205 kts | 257° |
| 2026-05-06 12:02 | 42.85066 | 3.52902 | 18043 ft | 205 kts | 257° |
| 2026-05-06 12:02 | 42.84755 | 3.51002 | 18043 ft | 205 kts | 257° |
| 2026-05-06 12:02 | 42.84444 | 3.49100 | 18037 ft | 205 kts | 257° |
| 2026-05-06 12:02 | 42.84133 | 3.47201 | 18037 ft | 205 kts | 257° |
| 2026-05-06 12:03 | 42.83826 | 3.45324 | 18040 ft | 205 kts | 257° |
| 2026-05-06 12:03 | 42.83510 | 3.43401 | 18040 ft | 205 kts | 257° |
| 2026-05-06 12:03 | 42.83198 | 3.41501 | 18040 ft | 205 kts | 257° |
| 2026-05-06 12:03 | 42.82889 | 3.39629 | 18040 ft | 205 kts | 257° |
| 2026-05-06 12:04 | 42.82576 | 3.37727 | 18037 ft | 205 kts | 257° |
| 2026-05-06 12:04 | 42.82263 | 3.35827 | 18037 ft | 205 kts | 257° |
| 2026-05-06 12:04 | 42.81950 | 3.33929 | 18040 ft | 205 kts | 257° |
| 2026-05-06 12:04 | 42.81636 | 3.32032 | 18039 ft | 205 kts | 257° |
| 2026-05-06 12:05 | 42.81323 | 3.30139 | 18043 ft | 205 kts | 257° |
| 2026-05-06 12:05 | 42.81008 | 3.28241 | 18042 ft | 205 kts | 257° |
| 2026-05-06 12:05 | 42.80693 | 3.26341 | 18041 ft | 205 kts | 257° |
| 2026-05-06 12:05 | 42.80370 | 3.24445 | 18039 ft | 205 kts | 254° |
| 2026-05-06 12:06 | 42.79612 | 3.22819 | 18039 ft | 208 kts | 226° |
| 2026-05-06 12:06 | 42.78521 | 3.21519 | 18039 ft | 209 kts | 225° |
| 2026-05-06 12:06 | 42.77442 | 3.20193 | 18036 ft | 209 kts | 226° |
| 2026-05-06 12:06 | 42.76366 | 3.18859 | 18035 ft | 209 kts | 226° |
| 2026-05-06 12:07 | 42.75289 | 3.17526 | 18034 ft | 209 kts | 226° |
| 2026-05-06 12:07 | 42.74211 | 3.16195 | 18034 ft | 209 kts | 226° |
| 2026-05-06 12:07 | 42.73130 | 3.14864 | 18036 ft | 210 kts | 226° |
| 2026-05-06 12:07 | 42.72047 | 3.13534 | 18035 ft | 210 kts | 226° |
| 2026-05-06 12:08 | 42.70966 | 3.12206 | 18033 ft | 210 kts | 225° |
| 2026-05-06 12:08 | 42.69882 | 3.10878 | 18032 ft | 210 kts | 225° |
| 2026-05-06 12:08 | 42.68798 | 3.09549 | 18032 ft | 210 kts | 225° |
| 2026-05-06 12:08 | 42.67714 | 3.08221 | 18032 ft | 210 kts | 225° |
| 2026-05-06 12:09 | 42.66630 | 3.06894 | 18032 ft | 210 kts | 225° |
| 2026-05-06 12:09 | 42.65547 | 3.05568 | 18032 ft | 210 kts | 225° |
| 2026-05-06 12:09 | 42.64476 | 3.04258 | 18034 ft | 210 kts | 226° |
| 2026-05-06 12:09 | 42.63386 | 3.02926 | 18034 ft | 211 kts | 226° |
| 2026-05-06 12:10 | 42.62295 | 3.01591 | 18033 ft | 212 kts | 226° |
| 2026-05-06 12:10 | 42.61201 | 3.00255 | 18032 ft | 212 kts | 226° |
| 2026-05-06 12:10 | 42.60102 | 2.98914 | 18031 ft | 212 kts | 226° |
| 2026-05-06 12:10 | 42.59004 | 2.97574 | 18031 ft | 212 kts | 226° |
| 2026-05-06 12:11 | 42.57908 | 2.96237 | 18032 ft | 212 kts | 226° |
| 2026-05-06 12:11 | 42.56810 | 2.94899 | 18030 ft | 212 kts | 225° |
| 2026-05-06 12:11 | 42.55715 | 2.93565 | 18032 ft | 211 kts | 225° |
| 2026-05-06 12:11 | 42.54620 | 2.92232 | 18035 ft | 211 kts | 225° |
| 2026-05-06 12:12 | 42.53526 | 2.90900 | 18036 ft | 211 kts | 225° |
| 2026-05-06 12:12 | 42.52429 | 2.89565 | 18036 ft | 212 kts | 225° |
| 2026-05-06 12:12 | 42.51333 | 2.88231 | 18035 ft | 212 kts | 225° |
| 2026-05-06 12:12 | 42.50238 | 2.86900 | 18036 ft | 211 kts | 225° |
| 2026-05-06 12:13 | 42.49140 | 2.85566 | 18037 ft | 212 kts | 225° |
| 2026-05-06 12:13 | 42.48038 | 2.84229 | 18036 ft | 212 kts | 225° |
| 2026-05-06 12:13 | 42.46939 | 2.82895 | 18033 ft | 212 kts | 225° |
| 2026-05-06 12:13 | 42.45857 | 2.81582 | 18035 ft | 211 kts | 225° |
| 2026-05-06 12:14 | 42.44762 | 2.80260 | 18044 ft | 211 kts | 225° |
| 2026-05-06 12:14 | 42.43666 | 2.78930 | 18043 ft | 212 kts | 225° |
| 2026-05-06 12:14 | 42.42571 | 2.77602 | 18041 ft | 211 kts | 225° |
| 2026-05-06 12:14 | 42.41477 | 2.76276 | 18038 ft | 210 kts | 225° |
| 2026-05-06 12:15 | 42.40392 | 2.74961 | 18045 ft | 210 kts | 225° |
| 2026-05-06 12:15 | 42.39302 | 2.73643 | 18041 ft | 211 kts | 225° |
| 2026-05-06 12:15 | 42.38206 | 2.72317 | 18039 ft | 211 kts | 225° |
| 2026-05-06 12:15 | 42.37113 | 2.70997 | 18032 ft | 210 kts | 225° |
| 2026-05-06 12:16 | 42.36025 | 2.69683 | 18034 ft | 209 kts | 225° |
| 2026-05-06 12:16 | 42.34940 | 2.68373 | 18040 ft | 209 kts | 225° |
| 2026-05-06 12:16 | 42.33848 | 2.67057 | 18047 ft | 209 kts | 225° |
| 2026-05-06 12:16 | 42.32768 | 2.65754 | 18035 ft | 210 kts | 225° |
| 2026-05-06 12:17 | 42.31679 | 2.64441 | 18041 ft | 211 kts | 225° |
| 2026-05-06 12:17 | 42.30582 | 2.63120 | 18031 ft | 211 kts | 225° |
| 2026-05-06 12:17 | 42.29483 | 2.61797 | 18041 ft | 212 kts | 225° |
| 2026-05-06 12:17 | 42.28378 | 2.60466 | 18040 ft | 213 kts | 225° |
| 2026-05-06 12:18 | 42.27285 | 2.59150 | 18040 ft | 214 kts | 225° |
| 2026-05-06 12:18 | 42.26174 | 2.57812 | 18030 ft | 213 kts | 225° |
| 2026-05-06 12:18 | 42.25066 | 2.56481 | 18029 ft | 213 kts | 225° |
| 2026-05-06 12:18 | 42.23960 | 2.55153 | 18026 ft | 213 kts | 225° |
| 2026-05-06 12:19 | 42.22850 | 2.53819 | 18029 ft | 213 kts | 225° |
| 2026-05-06 12:19 | 42.21743 | 2.52493 | 18029 ft | 213 kts | 225° |
| 2026-05-06 12:19 | 42.20635 | 2.51164 | 18032 ft | 213 kts | 225° |
| 2026-05-06 12:19 | 42.19534 | 2.49846 | 18035 ft | 214 kts | 225° |
| 2026-05-06 12:20 | 42.18409 | 2.48498 | 18031 ft | 214 kts | 225° |
| 2026-05-06 12:20 | 42.17298 | 2.47165 | 18028 ft | 214 kts | 225° |
| 2026-05-06 12:20 | 42.16204 | 2.45854 | 18020 ft | 212 kts | 225° |
| 2026-05-06 12:20 | 42.15102 | 2.44535 | 18024 ft | 211 kts | 225° |
| 2026-05-06 12:21 | 42.14003 | 2.43220 | 18017 ft | 211 kts | 225° |
| 2026-05-06 12:21 | 42.12907 | 2.41910 | 18017 ft | 211 kts | 225° |
| 2026-05-06 12:21 | 42.11807 | 2.40596 | 18019 ft | 210 kts | 225° |
| 2026-05-06 12:21 | 42.10896 | 2.39100 | 18021 ft | 206 kts | 239° |
| 2026-05-06 12:22 | 42.10164 | 2.37443 | 18025 ft | 207 kts | 242° |
| 2026-05-06 12:22 | 42.09460 | 2.35754 | 18022 ft | 207 kts | 242° |
| 2026-05-06 12:22 | 42.08754 | 2.34059 | 18017 ft | 207 kts | 242° |
| 2026-05-06 12:22 | 42.08045 | 2.32369 | 18020 ft | 208 kts | 242° |
| 2026-05-06 12:23 | 42.07328 | 2.30683 | 18018 ft | 208 kts | 242° |
| 2026-05-06 12:23 | 42.06605 | 2.28997 | 18017 ft | 208 kts | 242° |
| 2026-05-06 12:23 | 42.05877 | 2.27308 | 18012 ft | 210 kts | 242° |
| 2026-05-06 12:23 | 42.05141 | 2.25606 | 18014 ft | 211 kts | 242° |
| 2026-05-06 12:24 | 42.04411 | 2.23919 | 18020 ft | 212 kts | 242° |
| 2026-05-06 12:24 | 42.03667 | 2.22204 | 18013 ft | 212 kts | 242° |
| 2026-05-06 12:24 | 42.02921 | 2.20487 | 18016 ft | 213 kts | 242° |
| 2026-05-06 12:24 | 42.02173 | 2.18767 | 18017 ft | 213 kts | 242° |
| 2026-05-06 12:25 | 42.01425 | 2.17044 | 18011 ft | 213 kts | 242° |
| 2026-05-06 12:25 | 42.00677 | 2.15323 | 18013 ft | 213 kts | 242° |
| 2026-05-06 12:25 | 41.99926 | 2.13604 | 18012 ft | 213 kts | 242° |
| 2026-05-06 12:25 | 41.99174 | 2.11879 | 18010 ft | 214 kts | 242° |
| 2026-05-06 12:26 | 41.98423 | 2.10157 | 18009 ft | 214 kts | 242° |
| 2026-05-06 12:26 | 41.97669 | 2.08431 | 18006 ft | 214 kts | 242° |
| 2026-05-06 12:26 | 41.96919 | 2.06710 | 18011 ft | 214 kts | 242° |
| 2026-05-06 12:26 | 41.96169 | 2.04993 | 18001 ft | 211 kts | 241° |
| 2026-05-06 12:27 | 41.95427 | 2.03295 | 18006 ft | 210 kts | 241° |
| 2026-05-06 12:27 | 41.94698 | 2.01629 | 18007 ft | 209 kts | 241° |
| 2026-05-06 12:27 | 41.93962 | 1.99948 | 18011 ft | 209 kts | 241° |
| 2026-05-06 12:27 | 41.93223 | 1.98262 | 18007 ft | 209 kts | 241° |
| 2026-05-06 12:28 | 41.92727 | 1.97128 | 18004 ft | 208 kts | 241° |
| 2026-05-06 12:28 | 41.91754 | 1.94907 | 18010 ft | 208 kts | 241° |
| 2026-05-06 12:28 | 41.91267 | 1.93798 | 18011 ft | 208 kts | 241° |
| 2026-05-06 12:28 | 41.90531 | 1.92120 | 18012 ft | 209 kts | 241° |
| 2026-05-06 12:29 | 41.89793 | 1.90441 | 18011 ft | 209 kts | 242° |
| 2026-05-06 12:29 | 41.89050 | 1.88750 | 18011 ft | 211 kts | 242° |
| 2026-05-06 12:29 | 41.88303 | 1.87048 | 18010 ft | 212 kts | 242° |
| 2026-05-06 12:29 | 41.87553 | 1.85340 | 18007 ft | 212 kts | 242° |
| 2026-05-06 12:30 | 41.86802 | 1.83633 | 18010 ft | 213 kts | 242° |
| 2026-05-06 12:30 | 41.86047 | 1.81917 | 18008 ft | 213 kts | 242° |
| 2026-05-06 12:30 | 41.85294 | 1.80209 | 18012 ft | 213 kts | 242° |
| 2026-05-06 12:30 | 41.84539 | 1.78496 | 18014 ft | 214 kts | 242° |
| 2026-05-06 12:31 | 41.83781 | 1.76779 | 18015 ft | 214 kts | 242° |
| 2026-05-06 12:31 | 41.83024 | 1.75062 | 18012 ft | 214 kts | 242° |
| 2026-05-06 12:31 | 41.82267 | 1.73350 | 18007 ft | 213 kts | 242° |
| 2026-05-06 12:31 | 41.81510 | 1.71636 | 17877 ft | 214 kts | 241° |
| 2026-05-06 12:32 | 41.80751 | 1.69913 | 17578 ft | 215 kts | 241° |
| 2026-05-06 12:32 | 41.79991 | 1.68191 | 17281 ft | 215 kts | 242° |
| 2026-05-06 12:32 | 41.79238 | 1.66490 | 16990 ft | 214 kts | 242° |
| 2026-05-06 12:32 | 41.78481 | 1.64780 | 16705 ft | 214 kts | 242° |
| 2026-05-06 12:33 | 41.77738 | 1.63056 | 16419 ft | 212 kts | 247° |
| 2026-05-06 12:33 | 41.77569 | 1.61145 | 16139 ft | 210 kts | 282° |
| 2026-05-06 12:33 | 41.78205 | 1.59386 | 15864 ft | 211 kts | 298° |
| 2026-05-06 12:33 | 41.78942 | 1.57680 | 15590 ft | 211 kts | 298° |
| 2026-05-06 12:34 | 41.79673 | 1.55972 | 15313 ft | 210 kts | 298° |
| 2026-05-06 12:34 | 41.80400 | 1.54278 | 15040 ft | 210 kts | 298° |
| 2026-05-06 12:34 | 41.81127 | 1.52585 | 14771 ft | 209 kts | 298° |
| 2026-05-06 12:34 | 41.81851 | 1.50896 | 14506 ft | 208 kts | 298° |
| 2026-05-06 12:35 | 41.82571 | 1.49217 | 14242 ft | 208 kts | 298° |
| 2026-05-06 12:35 | 41.83289 | 1.47539 | 13981 ft | 207 kts | 298° |
| 2026-05-06 12:35 | 41.84006 | 1.45863 | 13715 ft | 207 kts | 298° |
| 2026-05-06 12:35 | 41.84723 | 1.44187 | 13420 ft | 206 kts | 298° |
| 2026-05-06 12:36 | 41.85433 | 1.42521 | 13126 ft | 206 kts | 297° |
| 2026-05-06 12:36 | 41.86132 | 1.40882 | 12839 ft | 204 kts | 297° |
| 2026-05-06 12:36 | 41.86840 | 1.39227 | 12551 ft | 204 kts | 298° |
| 2026-05-06 12:36 | 41.87543 | 1.37577 | 12271 ft | 204 kts | 297° |
| 2026-05-06 12:37 | 41.88246 | 1.35927 | 11994 ft | 204 kts | 298° |
| 2026-05-06 12:37 | 41.88950 | 1.34274 | 11716 ft | 203 kts | 298° |
| 2026-05-06 12:37 | 41.89651 | 1.32626 | 11440 ft | 203 kts | 298° |
| 2026-05-06 12:37 | 41.90347 | 1.30989 | 11163 ft | 200 kts | 297° |
| 2026-05-06 12:38 | 41.91034 | 1.29379 | 10887 ft | 198 kts | 297° |
| 2026-05-06 12:38 | 41.91713 | 1.27780 | 10620 ft | 196 kts | 297° |
| 2026-05-06 12:38 | 41.92387 | 1.26192 | 10356 ft | 196 kts | 297° |
| 2026-05-06 12:38 | 41.93075 | 1.24620 | 10082 ft | 194 kts | 304° |
| 2026-05-06 12:39 | 41.94212 | 1.23658 | 9805 ft | 203 kts | 346° |
| 2026-05-06 12:39 | 41.95636 | 1.23637 | 9528 ft | 206 kts | 360° |
| 2026-05-06 12:39 | 41.97065 | 1.23804 | 9228 ft | 205 kts | 1° |
| 2026-05-06 12:39 | 41.98480 | 1.23971 | 8942 ft | 204 kts | 1° |
| 2026-05-06 12:40 | 41.99884 | 1.24111 | 8722 ft | 201 kts | 0° |
| 2026-05-06 12:40 | 42.01277 | 1.24245 | 8493 ft | 200 kts | 359° |
| 2026-05-06 12:40 | 42.02649 | 1.24373 | 8257 ft | 199 kts | 358° |
| 2026-05-06 12:40 | 42.04037 | 1.24503 | 8020 ft | 197 kts | 1° |
| 2026-05-06 12:41 | 42.05404 | 1.24626 | 7799 ft | 197 kts | 358° |
| 2026-05-06 12:41 | 42.06748 | 1.24745 | 7553 ft | 194 kts | 359° |
| 2026-05-06 12:41 | 42.08096 | 1.24872 | 7335 ft | 194 kts | 2° |
| 2026-05-06 12:41 | 42.09405 | 1.25414 | 7103 ft | 199 kts | 23° |
| 2026-05-06 12:42 | 42.10624 | 1.26214 | 7004 ft | 191 kts | 23° |
| 2026-05-06 12:42 | 42.11818 | 1.26943 | 6940 ft | 182 kts | 19° |
| 2026-05-06 12:42 | 42.12984 | 1.27636 | 6964 ft | 188 kts | 20° |
| 2026-05-06 12:42 | 42.14205 | 1.28371 | 6972 ft | 195 kts | 21° |
| 2026-05-06 12:43 | 42.15446 | 1.29133 | 6976 ft | 198 kts | 23° |
| 2026-05-06 12:43 | 42.16691 | 1.29965 | 6966 ft | 201 kts | 21° |
| 2026-05-06 12:43 | 42.17968 | 1.30760 | 6965 ft | 203 kts | 19° |
| 2026-05-06 12:43 | 42.19254 | 1.31535 | 6930 ft | 201 kts | 22° |
| 2026-05-06 12:44 | 42.20542 | 1.32323 | 6805 ft | 207 kts | 23° |
| 2026-05-06 12:44 | 42.21878 | 1.33155 | 6410 ft | 216 kts | 22° |
| 2026-05-06 12:44 | 42.23262 | 1.34018 | 5980 ft | 221 kts | 23° |
| 2026-05-06 12:44 | 42.24665 | 1.34907 | 5538 ft | 219 kts | 23° |
| 2026-05-06 12:45 | 42.26047 | 1.35757 | 5089 ft | 221 kts | 22° |
| 2026-05-06 12:45 | 42.27432 | 1.36597 | 4637 ft | 217 kts | 24° |
| 2026-05-06 12:45 | 42.30006 | 1.38211 | 3833 ft | 187 kts | 24° |
| 2026-05-06 12:46 | 42.31137 | 1.38896 | 3484 ft | 169 kts | 21° |
| 2026-05-06 12:46 | 42.32135 | 1.39477 | 3059 ft | 147 kts | 24° |
| 2026-05-06 12:46 | 42.32914 | 1.40140 | 2956 ft | 121 kts | 49° |
| 2026-05-06 12:46 | 42.33352 | 1.41092 | 3010 ft | 124 kts | 67° |
| 2026-05-06 12:47 | 42.33786 | 1.42138 | 3072 ft | 130 kts | 63° |
| 2026-05-06 12:47 | 42.34401 | 1.43030 | 3238 ft | 128 kts | 39° |
| 2026-05-06 12:47 | 42.35102 | 1.43762 | 3285 ft | 124 kts | 19° |
| 2026-05-06 12:47 | 42.35804 | 1.43549 | 3385 ft | 102 kts | 292° |
| 2026-05-06 12:48 | 42.35744 | 1.42676 | 3291 ft | 104 kts | 243° |
| 2026-05-06 12:48 | 42.35307 | 1.41969 | 2947 ft | 93 kts | 206° |
| 2026-05-06 12:48 | 42.34754 | 1.41576 | 2717 ft | 85 kts | 201° |
| 2026-05-06 12:48 | 42.34284 | 1.41205 | 2641 ft | 69 kts | 207° |
| 2026-05-06 12:49 | 42.33908 | 1.40902 | 2635 ft | 40 kts | 212° |
| 2026-05-06 12:49 | 42.33784 | 1.40745 | 2635 ft | 21 kts | 238° |
| 2026-05-06 12:49 | 42.33727 | 1.40602 | 2635 ft | 14 kts | 296° |
| 2026-05-06 12:49 | 42.33765 | 1.40499 | 2635 ft | 11 kts | 303° |
| 2026-05-06 12:50 | 42.33787 | 1.40487 | 2635 ft | 4 kts | 39° |
| 2026-05-06 12:50 | 42.33798 | 1.40504 | 2635 ft | 0 kts | 90° |